Aupaluk Airport


Codes: CYLA/YPJ
Name: Aupaluk Airport
City: Aupaluk
Country: Canada
Elevation: 119 ft.
Wikipedia:

Photos at Aupaluk Airport


   Photos courtesy of SpottingLog. You can add your own sightings and photos by signing up for a free trial today.



No photos found.

Weather at Aupaluk Airport


Time (UTC)DescriptionTempratureWindCloud coverageVisibilityPressureHumidity
25-Jun-2024 15:00Broken Clouds6°C11 mph, NE62%6865m1002hPa68%
25-Jun-2024 18:00Broken Clouds5°C16 mph, NE67%7029m1001hPa71%
25-Jun-2024 21:00Overcast Clouds2°C18 mph, NE99%7442m999hPa84%
26-Jun-2024 00:00Overcast Clouds0°C20 mph, N100%3099m999hPa92%
26-Jun-2024 03:00Overcast Clouds0°C22 mph, N100%1555m998hPa94%
26-Jun-2024 06:00Overcast Clouds0°C25 mph, N100%10000m997hPa92%
26-Jun-2024 09:00Overcast Clouds1°C25 mph, N98%10000m997hPa85%
26-Jun-2024 12:00Overcast Clouds2°C25 mph, N98%10000m998hPa82%
26-Jun-2024 15:00Broken Clouds3°C25 mph, N72%10000m1000hPa78%
26-Jun-2024 18:00Broken Clouds3°C25 mph, N78%10000m1002hPa78%
26-Jun-2024 21:00Broken Clouds5°C20 mph, N66%10000m1004hPa64%
27-Jun-2024 00:00Broken Clouds4°C16 mph, N75%10000m1005hPa72%
27-Jun-2024 03:00Overcast Clouds2°C11 mph, N95%10000m1006hPa81%
27-Jun-2024 06:00Broken Clouds1°C4 mph, N58%10000m1007hPa91%
27-Jun-2024 09:00Few Clouds1°C2 mph, S13%10000m1008hPa87%
27-Jun-2024 12:00Few Clouds5°C4 mph, S13%10000m1009hPa67%
27-Jun-2024 15:00Scattered Clouds8°C4 mph, SE26%10000m1008hPa54%
27-Jun-2024 18:00Broken Clouds9°C11 mph, SE59%10000m1008hPa52%
27-Jun-2024 21:00Broken Clouds8°C16 mph, SE68%10000m1009hPa56%
28-Jun-2024 00:00Scattered Clouds6°C16 mph, SE48%10000m1009hPa65%
28-Jun-2024 03:00Scattered Clouds4°C11 mph, SE28%10000m1009hPa69%
28-Jun-2024 06:00Scattered Clouds4°C7 mph, SE38%10000m1009hPa68%
28-Jun-2024 09:00Overcast Clouds5°C9 mph, SE91%10000m1010hPa67%
28-Jun-2024 12:00Overcast Clouds6°C11 mph, SE93%10000m1009hPa59%
28-Jun-2024 15:00Broken Clouds8°C11 mph, SE79%10000m1009hPa51%
28-Jun-2024 18:00Scattered Clouds9°C13 mph, E49%10000m1008hPa52%
28-Jun-2024 21:00Broken Clouds8°C13 mph, E69%10000m1007hPa53%
29-Jun-2024 00:00Broken Clouds5°C13 mph, E51%10000m1006hPa61%
29-Jun-2024 03:00Broken Clouds3°C9 mph, E52%10000m1005hPa72%
29-Jun-2024 06:00Broken Clouds3°C7 mph, SE75%10000m1005hPa72%
29-Jun-2024 09:00Overcast Clouds3°C7 mph, E100%10000m1005hPa75%
29-Jun-2024 12:00Light Rain4°C4 mph, E100%10000m1005hPa70%
29-Jun-2024 15:00Light Rain6°C2 mph, SE100%10000m1005hPa65%
29-Jun-2024 18:00Overcast Clouds9°C7 mph, SE98%10000m1006hPa58%
29-Jun-2024 21:00Broken Clouds10°C9 mph, SE69%10000m1006hPa58%
30-Jun-2024 00:00Scattered Clouds10°C13 mph, S36%10000m1006hPa60%
30-Jun-2024 03:00Clear Sky8°C11 mph, SW1%10000m1007hPa71%
30-Jun-2024 06:00Clear Sky6°C9 mph, SW4%10000m1007hPa77%
30-Jun-2024 09:00Few Clouds6°C11 mph, SW13%10000m1007hPa78%
30-Jun-2024 12:00Few Clouds11°C11 mph, W15%10000m1007hPa47%